createdAt,value
2018-08-28T00:03:50.249Z,98.90
2018-08-28T00:07:54.524Z,98.70
2018-08-28T00:11:58.780Z,99.00
2018-08-28T00:16:02.957Z,99.10
2018-08-28T00:20:07.210Z,98.40
2018-08-28T00:24:11.433Z,98.40
2018-08-28T00:28:15.764Z,99.00
2018-08-28T00:32:19.949Z,98.60
2018-08-28T00:36:24.445Z,98.80
2018-08-28T00:40:28.646Z,98.40
2018-08-28T00:44:32.830Z,98.90
2018-08-28T00:48:37.204Z,97.90
2018-08-28T00:52:41.399Z,98.30
2018-08-28T00:56:45.873Z,98.20
2018-08-28T01:00:50.068Z,98.60
2018-08-28T01:04:54.393Z,97.70
2018-08-28T01:08:58.672Z,98.00
2018-08-28T01:13:03.104Z,98.50
2018-08-28T01:17:07.309Z,98.90
2018-08-28T01:21:11.912Z,98.80
2018-08-28T01:25:16.088Z,99.00
2018-08-28T01:29:20.379Z,99.40
2018-08-28T01:33:24.567Z,99.00
2018-08-28T01:37:28.972Z,98.30
2018-08-28T01:41:33.171Z,98.70
2018-08-28T01:45:37.390Z,98.90
2018-08-28T01:49:41.683Z,99.30
2018-08-28T01:53:46.028Z,99.30
2018-08-28T01:57:50.394Z,99.90
2018-08-28T02:01:54.604Z,99.90
2018-08-28T02:05:58.877Z,99.90
2018-08-28T02:10:03.075Z,99.90
2018-08-28T02:14:07.716Z,99.90
2018-08-28T02:18:11.885Z,99.90
2018-08-28T02:22:16.217Z,99.90
2018-08-28T02:26:20.433Z,99.90
2018-08-28T02:30:24.585Z,99.90
2018-08-28T02:34:28.968Z,99.90
2018-08-28T02:38:33.215Z,99.90
2018-08-28T02:42:37.377Z,99.90
2018-08-28T02:46:41.545Z,99.90
2018-08-28T02:50:45.776Z,99.90
2018-08-28T02:54:50.031Z,99.90
2018-08-28T02:58:54.319Z,99.90
2018-08-28T03:02:58.518Z,99.90
2018-08-28T03:07:02.966Z,99.90
2018-08-28T03:11:07.229Z,99.90
2018-08-28T03:15:11.792Z,99.90
2018-08-28T03:19:16.015Z,99.90
2018-08-28T03:23:20.412Z,99.90
2018-08-28T03:27:24.622Z,99.90
2018-08-28T03:31:28.921Z,99.90
2018-08-28T03:35:33.100Z,99.90
2018-08-28T03:39:37.523Z,99.90
2018-08-28T03:43:41.860Z,99.90
2018-08-28T03:47:46.507Z,99.90
2018-08-28T03:51:50.713Z,99.90
2018-08-28T03:55:54.905Z,99.90
2018-08-28T03:59:59.200Z,99.90
2018-08-28T04:04:03.500Z,99.90
2018-08-28T04:08:07.961Z,99.90
2018-08-28T04:12:12.188Z,99.90
2018-08-28T04:16:16.525Z,99.90
2018-08-28T04:20:21.949Z,99.90
2018-08-28T04:24:26.109Z,99.90
2018-08-28T04:28:30.504Z,99.90
2018-08-28T04:32:34.673Z,99.90
2018-08-28T04:36:38.946Z,99.90
2018-08-28T04:40:43.147Z,99.90
2018-08-28T04:44:47.322Z,99.90
2018-08-28T04:48:52.100Z,99.90
2018-08-28T04:52:56.265Z,99.90
2018-08-28T04:57:00.661Z,99.90
2018-08-28T05:01:05.349Z,99.90
2018-08-28T05:05:10.314Z,99.90
2018-08-28T05:09:16.344Z,99.90
2018-08-28T05:13:20.914Z,99.90
2018-08-28T05:17:25.832Z,99.90
2018-08-28T05:21:30.574Z,99.90
2018-08-28T05:25:36.491Z,99.90
2018-08-28T05:29:41.212Z,99.90
2018-08-28T05:33:45.611Z,99.90
2018-08-28T05:37:50.339Z,99.90
2018-08-28T05:41:54.845Z,99.90
2018-08-28T05:45:59.046Z,99.90
2018-08-28T05:50:03.343Z,99.90
2018-08-28T05:54:07.603Z,99.90
2018-08-28T05:58:11.891Z,99.90
2018-08-28T06:02:16.085Z,99.90
2018-08-28T06:06:20.384Z,99.90
2018-08-28T06:10:24.564Z,99.90
2018-08-28T06:14:28.915Z,99.90
2018-08-28T06:18:33.190Z,99.90
2018-08-28T06:22:37.579Z,99.90
2018-08-28T06:26:41.909Z,99.90
2018-08-28T06:30:46.089Z,99.90
2018-08-28T06:34:50.469Z,98.90
2018-08-28T06:38:54.666Z,98.60
2018-08-28T06:42:58.827Z,98.40
2018-08-28T06:47:03.175Z,98.80
2018-08-28T06:51:07.445Z,95.20
2018-08-28T06:55:11.818Z,92.90
2018-08-28T06:59:16.025Z,94.00
2018-08-28T07:03:20.291Z,92.90
2018-08-28T07:07:24.607Z,92.20
2018-08-28T07:11:28.804Z,90.20
2018-08-28T07:15:33.111Z,85.90
2018-08-28T07:19:37.281Z,82.80
2018-08-28T07:23:41.580Z,80.40
2018-08-28T07:27:45.791Z,77.00
2018-08-28T07:31:50.165Z,74.40
2018-08-28T07:35:54.349Z,75.10
2018-08-28T07:39:59.051Z,73.20
2018-08-28T07:44:03.232Z,73.40
2018-08-28T07:48:07.604Z,71.60
2018-08-28T07:52:11.848Z,69.70
2018-08-28T07:56:16.184Z,66.10
2018-08-28T08:00:20.381Z,66.90
2018-08-28T08:04:24.673Z,63.60
2018-08-28T08:08:28.978Z,65.40
2018-08-28T08:12:36.074Z,63.20
2018-08-28T08:16:40.272Z,61.70
2018-08-28T08:20:44.599Z,59.00
2018-08-28T08:24:48.869Z,59.10
2018-08-28T08:28:53.308Z,58.20
2018-08-28T08:32:57.696Z,60.50
2018-08-28T08:37:02.441Z,58.20
2018-08-28T08:41:06.800Z,56.70
2018-08-28T08:45:11.094Z,56.30
2018-08-28T08:49:15.252Z,54.30
2018-08-28T08:53:19.798Z,53.20
2018-08-28T08:57:24.233Z,49.50
2018-08-28T09:01:28.578Z,48.90
2018-08-28T09:05:32.795Z,47.90
2018-08-28T09:09:37.149Z,45.80
2018-08-28T09:13:52.980Z,44.80
2018-08-28T09:17:57.333Z,44.10
2018-08-28T09:22:01.662Z,45.60
2018-08-28T09:26:05.931Z,44.20
2018-08-28T09:30:10.820Z,40.90
2018-08-28T09:34:14.968Z,42.40
2018-08-28T09:38:19.521Z,42.80
2018-08-28T09:42:23.917Z,37.80
2018-08-28T09:46:28.170Z,37.50
2018-08-28T09:50:32.549Z,38.00
2018-08-28T09:54:36.719Z,38.50
2018-08-28T09:58:41.078Z,38.40
2018-08-28T10:02:45.358Z,33.80
2018-08-28T10:06:49.690Z,35.40
2018-08-28T10:10:53.947Z,34.00
2018-08-28T10:14:58.128Z,31.80
2018-08-28T10:19:02.469Z,33.60
2018-08-28T10:23:06.714Z,31.90
2018-08-28T10:27:11.095Z,34.80
2018-08-28T10:31:15.314Z,33.10
2018-08-28T10:35:19.574Z,30.50
2018-08-28T10:39:23.909Z,32.40
2018-08-28T10:43:28.103Z,32.20
2018-08-28T10:47:32.480Z,32.40
2018-08-28T10:51:36.767Z,29.90
2018-08-28T10:55:41.124Z,30.00
2018-08-28T10:59:45.335Z,30.00
2018-08-28T11:03:49.672Z,29.80
2018-08-28T11:07:53.873Z,28.50
2018-08-28T11:11:58.325Z,29.30
2018-08-28T11:16:02.690Z,25.90
2018-08-28T11:20:07.065Z,25.10
2018-08-28T11:24:11.455Z,26.90
2018-08-28T11:28:15.646Z,27.70
2018-08-28T11:32:19.838Z,27.40
2018-08-28T11:36:24.274Z,25.60
2018-08-28T11:40:28.456Z,25.50
2018-08-28T11:44:32.673Z,25.20
2018-08-28T11:48:36.929Z,25.80
2018-08-28T11:52:41.218Z,24.60
2018-08-28T11:56:45.408Z,24.60
2018-08-28T12:00:49.628Z,23.80
2018-08-28T12:04:54.140Z,24.40
2018-08-28T12:08:58.358Z,24.30
2018-08-28T12:13:02.719Z,24.40
2018-08-28T12:17:06.911Z,25.50
2018-08-28T12:21:11.364Z,24.30
2018-08-28T12:25:15.552Z,24.60
2018-08-28T12:29:19.863Z,25.30
2018-08-28T12:33:24.129Z,25.90
2018-08-28T12:37:30.128Z,25.30
2018-08-28T12:41:34.350Z,23.40
2018-08-28T12:45:38.744Z,23.70
2018-08-28T12:49:42.993Z,24.20
2018-08-28T12:53:47.273Z,24.30
2018-08-28T12:57:51.440Z,23.70
2018-08-28T13:01:55.709Z,22.90
2018-08-28T13:05:59.947Z,22.40
2018-08-28T13:10:04.390Z,23.30
2018-08-28T13:14:08.718Z,22.00
2018-08-28T13:18:13.184Z,21.80
2018-08-28T13:22:17.384Z,22.70
2018-08-28T13:26:21.675Z,22.90
2018-08-28T13:30:25.872Z,24.70
2018-08-28T13:34:30.089Z,22.00
2018-08-28T13:38:34.429Z,21.40
2018-08-28T13:42:38.612Z,21.70
2018-08-28T13:46:42.882Z,20.60
2018-08-28T13:50:47.127Z,22.50
2018-08-28T13:54:51.460Z,21.90
2018-08-28T13:58:55.683Z,21.70
2018-08-28T14:03:00.326Z,20.70
2018-08-28T14:07:04.652Z,20.10
2018-08-28T14:11:08.867Z,20.60
2018-08-28T14:15:13.249Z,23.20
2018-08-28T14:19:17.727Z,22.30
2018-08-28T14:23:22.133Z,22.60
2018-08-28T14:27:26.397Z,22.30
2018-08-28T14:31:30.723Z,22.40
2018-08-28T14:35:35.054Z,23.10
2018-08-28T14:39:39.254Z,24.60
2018-08-28T14:43:43.541Z,23.20
2018-08-28T14:47:47.745Z,24.90
2018-08-28T14:51:51.961Z,23.50
2018-08-28T14:55:56.356Z,24.80
2018-08-28T15:00:00.648Z,25.40
2018-08-28T15:04:08.137Z,24.60
2018-08-28T15:08:12.371Z,26.50
2018-08-28T15:12:16.882Z,25.70
2018-08-28T15:16:21.173Z,26.90
2018-08-28T15:20:33.739Z,26.50
2018-08-28T15:24:38.310Z,26.80
2018-08-28T15:28:48.645Z,27.90
2018-08-28T15:32:58.405Z,29.90
2018-08-28T15:37:09.208Z,32.90
2018-08-28T15:41:18.528Z,35.60
2018-08-28T15:45:28.258Z,36.40
2018-08-28T15:49:37.892Z,37.80
2018-08-28T15:53:47.991Z,41.30
2018-08-28T15:57:52.508Z,43.80
2018-08-28T16:01:56.723Z,44.40
2018-08-28T16:06:00.922Z,44.80
2018-08-28T16:10:05.317Z,48.20
2018-08-28T16:14:09.700Z,47.90
2018-08-28T16:18:14.303Z,50.40
2018-08-28T16:22:24.572Z,53.00
2018-08-28T16:26:28.776Z,53.60
2018-08-28T16:30:33.308Z,51.70
2018-08-28T16:34:37.764Z,56.40
2018-08-28T16:38:42.140Z,55.20
2018-08-28T16:42:46.379Z,56.20
2018-08-28T16:46:50.732Z,60.90
2018-08-28T16:50:54.887Z,62.50
2018-08-28T16:54:59.278Z,65.70
2018-08-28T16:59:03.727Z,67.30
2018-08-28T17:03:09.213Z,67.10
2018-08-28T17:07:13.418Z,67.00
2018-08-28T17:11:17.798Z,69.70
2018-08-28T17:15:22.244Z,70.30
2018-08-28T17:19:26.616Z,71.30
2018-08-28T17:23:30.838Z,71.70
2018-08-28T17:27:35.167Z,72.20
2018-08-28T17:31:39.709Z,73.60
2018-08-28T17:35:44.016Z,74.70
2018-08-28T17:39:48.228Z,76.10
2018-08-28T17:43:52.469Z,76.00
2018-08-28T17:47:56.800Z,78.00
2018-08-28T17:52:01.005Z,78.50
2018-08-28T17:56:05.421Z,80.60
2018-08-28T18:00:09.709Z,81.10
2018-08-28T18:04:14.954Z,82.00
2018-08-28T18:08:19.342Z,83.20
2018-08-28T18:12:23.646Z,83.10
2018-08-28T18:16:28.240Z,85.00
2018-08-28T18:20:32.545Z,87.00
2018-08-28T18:24:36.763Z,87.80
2018-08-28T18:28:41.151Z,88.30
2018-08-28T18:32:45.330Z,89.50
2018-08-28T18:36:49.956Z,89.60
2018-08-28T18:40:55.404Z,90.40
2018-08-28T18:44:59.944Z,91.00
2018-08-28T18:49:04.936Z,91.00
2018-08-28T18:53:09.552Z,91.20
2018-08-28T18:57:14.077Z,91.80
2018-08-28T19:01:18.585Z,92.50
2018-08-28T19:05:22.862Z,92.80
2018-08-28T19:09:27.367Z,93.30
2018-08-28T19:13:31.963Z,93.80
2018-08-28T19:17:42.689Z,93.90
2018-08-28T19:21:53.788Z,93.80
2018-08-28T19:26:03.898Z,94.10
2018-08-28T19:30:13.135Z,94.60
2018-08-28T19:34:23.056Z,94.90
2018-08-28T19:38:33.448Z,95.40
2018-08-28T19:42:44.728Z,95.50
2018-08-28T19:46:53.925Z,95.40
2018-08-28T19:51:03.407Z,95.80
2018-08-28T19:55:12.332Z,96.00
2018-08-28T19:59:22.760Z,96.30
2018-08-28T20:03:33.464Z,96.90
2018-08-28T20:07:42.792Z,96.90
2018-08-28T20:11:51.980Z,97.00
2018-08-28T20:16:01.774Z,97.10
2018-08-28T20:20:11.802Z,97.70
2018-08-28T20:24:21.518Z,97.70
2018-08-28T20:28:31.613Z,98.30
2018-08-28T20:32:41.862Z,98.10
2018-08-28T20:36:50.964Z,98.30
2018-08-28T20:41:00.594Z,98.60
2018-08-28T20:45:11.169Z,98.70
2018-08-28T20:49:21.608Z,98.70
2018-08-28T20:53:31.363Z,98.50
2018-08-28T20:57:41.289Z,99.00
2018-08-28T21:01:50.767Z,99.30
2018-08-28T21:06:00.198Z,99.70
2018-08-28T21:10:16.068Z,99.80
2018-08-28T21:14:26.712Z,99.80
2018-08-28T21:18:37.986Z,99.90
2018-08-28T21:22:47.432Z,99.90
2018-08-28T21:26:56.836Z,99.90
2018-08-28T21:31:07.324Z,99.90
2018-08-28T21:35:16.920Z,99.90
2018-08-28T21:39:26.639Z,99.90
2018-08-28T21:43:36.235Z,99.90
2018-08-28T21:47:46.509Z,99.90
2018-08-28T21:51:56.507Z,99.90
2018-08-28T21:56:06.256Z,99.90
2018-08-28T22:00:15.709Z,99.90
2018-08-28T22:04:25.005Z,99.90
2018-08-28T22:08:34.791Z,99.90
2018-08-28T22:12:44.757Z,99.90
2018-08-28T22:16:57.060Z,99.90
2018-08-28T22:21:06.610Z,99.90
2018-08-28T22:25:15.958Z,99.90
2018-08-28T22:29:30.995Z,99.90
2018-08-28T22:33:45.771Z,99.90
2018-08-28T22:37:55.096Z,99.90
2018-08-28T22:42:05.491Z,99.90
2018-08-28T22:46:16.361Z,99.90
2018-08-28T22:50:25.908Z,99.90
2018-08-28T22:54:35.786Z,99.90
2018-08-28T22:58:40.267Z,99.90
2018-08-28T23:02:44.491Z,99.90
2018-08-28T23:06:58.028Z,99.90
2018-08-28T23:11:10.980Z,99.90
2018-08-28T23:15:27.359Z,99.90
2018-08-28T23:19:39.695Z,99.90
2018-08-28T23:23:56.943Z,99.90
2018-08-28T23:28:10.431Z,99.90
2018-08-28T23:32:23.345Z,99.90
2018-08-28T23:36:38.711Z,99.90
2018-08-28T23:40:55.308Z,99.90
2018-08-28T23:45:10.682Z,99.90
2018-08-28T23:49:26.650Z,99.90
2018-08-28T23:53:39.644Z,99.90
2018-08-28T23:57:57.937Z,99.90
